Time;durP1;ratioP1;P1;durP2;ratioP2;P2;SDS_P1;SDS_P2;PMS_P1;PMS_P2;Temp;Humidity;BMP_temperature;BMP_pressure;BME280_temperature;BME280_humidity;BME280_pressure;Samples;Min_cycle;Max_cycle;Signal;HPM_P1;HPM_P2
2023/01/12 00:00:57;;;;;;;60.60;7.05;;;10.70;99.90;;;;;;5059116;28;20032;-71
2023/01/12 00:03:23;;;;;;;62.35;6.93;;;10.70;99.90;;;;;;5043341;28;20024;-70
2023/01/12 00:05:48;;;;;;;60.72;6.88;;;10.70;99.90;;;;;;5059503;28;20499;-70
2023/01/12 00:08:14;;;;;;;54.63;6.10;;;10.70;99.90;;;;;;5072804;28;20021;-70
2023/01/12 00:10:39;;;;;;;57.85;6.65;;;10.70;99.90;;;;;;5061349;28;20035;-70
2023/01/12 00:13:05;;;;;;;51.70;6.65;;;10.70;99.90;;;;;;5070446;28;20297;-70
2023/01/12 00:16:33;;;;;;;60.22;7.10;;;10.70;99.90;;;;;;5072522;28;20020;-70
2023/01/12 00:18:21;;;;;;;49.90;7.45;;;10.70;99.90;;;;;;5060638;28;20035;-70
2023/01/12 00:20:47;;;;;;;55.55;6.72;;;10.60;99.90;;;;;;5060740;28;20024;-71
2023/01/12 00:23:13;;;;;;;66.45;6.63;;;10.60;99.90;;;;;;5066214;28;20032;-71
2023/01/12 00:25:39;;;;;;;51.63;7.82;;;10.60;99.90;;;;;;5062813;28;20028;-71
2023/01/12 00:28:05;;;;;;;48.38;8.07;;;10.50;99.90;;;;;;5058430;28;20055;-71
2023/01/12 00:30:31;;;;;;;56.97;7.05;;;10.60;99.90;;;;;;5062133;28;20107;-70
2023/01/12 00:32:56;;;;;;;55.17;6.30;;;10.60;99.90;;;;;;5064965;28;20664;-70
2023/01/12 00:35:22;;;;;;;60.10;7.95;;;10.60;99.90;;;;;;5072400;28;20029;-70
2023/01/12 00:37:48;;;;;;;50.65;5.95;;;10.60;99.90;;;;;;5073816;28;20339;-70
2023/01/12 00:40:13;;;;;;;59.47;5.85;;;10.60;99.90;;;;;;5075035;28;20445;-70
2023/01/12 00:45:24;;;;;;;65.10;6.80;;;10.50;99.90;;;;;;5072362;28;20066;-70
2023/01/12 00:47:50;;;;;;;54.75;6.32;;;10.50;99.90;;;;;;5065111;28;20044;-70
2023/01/12 00:50:16;;;;;;;57.53;6.20;;;10.50;99.90;;;;;;5073323;28;20024;-70
2023/01/12 00:52:42;;;;;;;45.72;5.95;;;10.60;99.90;;;;;;5073704;28;20065;-70
2023/01/12 00:55:08;;;;;;;41.05;4.85;;;10.60;99.90;;;;;;5063456;28;20025;-70
2023/01/12 00:57:33;;;;;;;43.25;6.82;;;10.60;99.90;;;;;;5072531;28;20555;-70
2023/01/12 00:59:59;;;;;;;53.55;5.05;;;10.70;99.90;;;;;;5068362;28;20040;-70
2023/01/12 01:02:26;;;;;;;42.63;6.10;;;10.70;99.90;;;;;;5055169;28;20031;-71
2023/01/12 01:04:52;;;;;;;49.10;6.22;;;10.80;99.90;;;;;;5054672;28;20040;-70
2023/01/12 01:07:20;;;;;;;52.40;6.55;;;10.80;99.90;;;;;;5056657;28;20031;-70
2023/01/12 01:09:45;;;;;;;60.15;6.57;;;10.80;99.90;;;;;;5057597;28;20025;-70
2023/01/12 01:12:12;;;;;;;49.40;5.97;;;10.70;99.90;;;;;;5068017;28;20109;-70
2023/01/12 01:14:37;;;;;;;53.90;5.85;;;10.80;99.90;;;;;;5057807;28;20036;-70
2023/01/12 01:17:03;;;;;;;46.20;6.32;;;10.80;99.90;;;;;;5075891;28;20028;-70
2023/01/12 01:19:29;;;;;;;46.67;5.43;;;10.70;99.90;;;;;;5071582;28;20163;-70
2023/01/12 01:21:54;;;;;;;47.65;5.20;;;10.80;99.90;;;;;;5065071;28;20487;-70
2023/01/12 01:24:20;;;;;;;49.25;6.18;;;10.70;99.90;;;;;;5057003;28;20535;-71
2023/01/12 01:26:49;;;;;;;52.55;5.45;;;10.70;99.90;;;;;;5065330;28;20028;-70
2023/01/12 01:29:14;;;;;;;53.28;6.45;;;10.80;99.90;;;;;;5058059;28;21218;-70
2023/01/12 01:31:40;;;;;;;54.17;5.60;;;10.80;99.90;;;;;;5038444;28;20032;-70
2023/01/12 01:34:06;;;;;;;57.70;6.72;;;10.80;99.90;;;;;;5068244;28;20036;-70
2023/01/12 01:36:31;;;;;;;54.53;6.07;;;10.80;99.90;;;;;;5056895;28;20403;-70
2023/01/12 01:38:57;;;;;;;48.58;6.43;;;10.80;99.90;;;;;;5057566;28;20482;-70
2023/01/12 01:41:26;;;;;;;53.85;7.72;;;10.80;99.90;;;;;;5059844;28;20573;-69
2023/01/12 01:44:05;;;;;;;47.03;6.53;;;10.80;99.90;;;;;;5074177;28;20226;-70
2023/01/12 01:46:45;;;;;;;51.20;5.88;;;10.70;99.90;;;;;;5064663;28;20024;-70
2023/01/12 01:49:22;;;;;;;39.65;5.28;;;10.80;99.90;;;;;;5054731;28;20530;-70
2023/01/12 01:51:50;;;;;;;55.55;7.07;;;10.80;99.90;;;;;;5069158;28;20363;-70
2023/01/12 01:54:16;;;;;;;51.47;6.50;;;10.70;99.90;;;;;;5056287;28;20039;-70
2023/01/12 01:56:42;;;;;;;47.97;6.38;;;10.80;99.90;;;;;;5065216;28;20024;-70
2023/01/12 01:59:14;;;;;;;68.43;8.32;;;10.70;99.90;;;;;;5058425;28;20035;-70
2023/01/12 02:01:40;;;;;;;49.75;6.75;;;10.70;99.90;;;;;;5058776;28;20032;-70
2023/01/12 02:04:06;;;;;;;57.65;6.78;;;10.70;99.90;;;;;;5071134;28;20035;-70
2023/01/12 02:06:32;;;;;;;49.40;6.40;;;10.70;99.90;;;;;;5073490;28;20032;-70
2023/01/12 02:09:14;;;;;;;56.72;7.88;;;10.70;99.90;;;;;;5058446;28;20036;-71
2023/01/12 02:17:22;;;;;;;43.20;5.90;;;10.70;99.90;;;;;;5041926;28;20050;-70
2023/01/12 02:20:25;;;;;;;56.08;7.13;;;10.70;99.90;;;;;;5068114;28;20032;-70
2023/01/12 02:23:21;;;;;;;50.50;5.65;;;10.70;99.90;;;;;;5074376;28;20028;-70
2023/01/12 02:26:10;;;;;;;61.42;5.72;;;10.70;99.90;;;;;;5067387;28;20459;-70
2023/01/12 02:28:45;;;;;;;41.45;6.10;;;10.70;99.90;;;;;;5079957;28;20028;-69
2023/01/12 02:31:29;;;;;;;65.57;8.30;;;10.70;99.90;;;;;;5072669;28;20153;-70
2023/01/12 02:34:00;;;;;;;49.25;7.22;;;10.70;99.90;;;;;;5058624;28;20055;-70
2023/01/12 02:36:45;;;;;;;;;;;10.70;99.90;;;;;;5071064;28;20115;-71
2023/01/12 02:39:25;;;;;;;45.97;6.22;;;10.70;99.90;;;;;;5062915;28;20406;-70
2023/01/12 02:45:20;;;;;;;56.85;5.90;;;10.80;99.90;;;;;;5078352;28;20114;-70
2023/01/12 02:48:07;;;;;;;48.28;5.45;;;10.80;99.90;;;;;;5076738;28;20043;-70
2023/01/12 02:50:50;;;;;;;49.88;5.15;;;10.80;99.90;;;;;;5076711;28;20032;-70
2023/01/12 02:53:37;;;;;;;54.55;6.88;;;10.80;99.90;;;;;;5055663;28;20056;-70
2023/01/12 02:56:06;;;;;;;48.05;6.22;;;10.70;99.90;;;;;;5028871;28;20068;-70
2023/01/12 02:58:35;;;;;;;48.08;5.68;;;10.80;99.90;;;;;;5073237;28;20039;-70
2023/01/12 03:01:03;;;;;;;52.40;7.00;;;10.80;99.90;;;;;;5046424;28;20048;-71
2023/01/12 03:03:29;;;;;;;50.33;5.38;;;10.80;99.90;;;;;;5058212;28;20072;-70
2023/01/12 03:05:58;;;;;;;47.55;6.45;;;10.80;99.90;;;;;;5077222;22;20063;-82
2023/01/12 03:08:28;;;;;;;46.42;7.18;;;10.80;99.90;;;;;;5035968;28;20099;-83
2023/01/12 03:11:17;;;;;;;45.72;5.20;;;10.70;99.90;;;;;;5035468;28;20033;-83
2023/01/12 03:13:56;;;;;;;49.20;4.57;;;10.80;99.90;;;;;;5037854;28;20125;-81
2023/01/12 03:16:25;;;;;;;54.42;6.25;;;10.80;99.90;;;;;;5032567;28;20489;-83
2023/01/12 03:19:17;;;;;;;45.33;5.18;;;10.70;99.90;;;;;;5018056;28;20128;-85
2023/01/12 03:21:56;;;;;;;46.22;5.30;;;10.80;99.90;;;;;;5043171;28;20037;-82
2023/01/12 03:24:47;;;;;;;48.15;5.28;;;10.80;99.90;;;;;;5024314;28;20290;-82
2023/01/12 03:27:27;;;;;;;45.63;5.50;;;10.80;99.90;;;;;;5038326;28;20172;-81
2023/01/12 03:30:01;;;;;;;58.20;5.75;;;10.80;99.90;;;;;;5025200;28;20161;-82
2023/01/12 03:32:27;;;;;;;55.05;5.43;;;10.80;99.90;;;;;;5042010;28;20502;-83
2023/01/12 03:34:53;;;;;;;39.30;4.43;;;10.80;99.90;;;;;;5041469;28;20057;-84
2023/01/12 03:37:33;;;;;;;45.33;3.97;;;10.80;99.90;;;;;;5042130;28;20092;-84
2023/01/12 03:40:08;;;;;;;39.03;4.05;;;10.90;99.90;;;;;;5021651;28;20032;-84
2023/01/12 03:42:51;;;;;;;42.08;4.70;;;10.90;99.90;;;;;;5005218;28;20430;-83
2023/01/12 03:45:41;;;;;;;48.47;5.13;;;10.90;99.90;;;;;;5031244;28;20056;-84
2023/01/12 03:48:15;;;;;;;40.47;4.50;;;10.90;99.90;;;;;;5024219;28;20039;-81
2023/01/12 03:51:18;;;;;;;42.70;5.63;;;10.90;99.90;;;;;;5018450;28;20037;-85
2023/01/12 03:53:48;;;;;;;35.10;3.95;;;11.00;99.90;;;;;;5023622;28;20037;-85
2023/01/12 03:56:15;;;;;;;38.20;4.78;;;10.90;99.90;;;;;;5041080;28;20025;-83
2023/01/12 03:58:42;;;;;;;38.33;3.90;;;11.00;99.90;;;;;;5044902;28;20021;-84
2023/01/12 04:01:08;;;;;;;38.47;4.20;;;11.00;99.90;;;;;;5026312;28;20533;-84
2023/01/12 04:03:33;;;;;;;29.83;4.15;;;11.00;99.90;;;;;;5041826;28;20116;-83
2023/01/12 04:05:59;;;;;;;31.00;3.38;;;11.00;99.90;;;;;;5035250;28;20580;-83
2023/01/12 04:08:24;;;;;;;22.70;3.33;;;11.00;99.90;;;;;;5025873;28;20029;-86
2023/01/12 04:10:50;;;;;;;27.65;4.03;;;11.00;99.90;;;;;;5038762;28;20519;-84
2023/01/12 04:13:15;;;;;;;33.15;3.58;;;11.00;99.90;;;;;;5019015;28;20048;-85
2023/01/12 04:15:41;;;;;;;31.98;4.28;;;11.00;99.90;;;;;;5038308;28;20119;-85
2023/01/12 04:18:08;;;;;;;31.30;4.20;;;11.00;99.90;;;;;;5034170;28;20033;-82
2023/01/12 04:20:34;;;;;;;37.30;4.90;;;11.00;99.90;;;;;;5037650;28;20238;-84
2023/01/12 04:23:00;;;;;;;31.45;5.00;;;11.00;99.90;;;;;;5038547;28;20476;-84
2023/01/12 04:25:26;;;;;;;29.42;3.08;;;11.00;99.90;;;;;;5017087;28;20138;-84
2023/01/12 04:28:01;;;;;;;24.27;3.22;;;11.10;99.90;;;;;;5036374;28;20561;-84
2023/01/12 04:30:28;;;;;;;24.67;3.13;;;11.10;99.90;;;;;;5034432;28;20040;-82
2023/01/12 04:32:55;;;;;;;34.28;4.07;;;11.00;99.90;;;;;;5018880;28;20045;-83
2023/01/12 04:35:22;;;;;;;27.83;3.47;;;11.10;99.90;;;;;;5033583;28;20492;-82
2023/01/12 04:37:48;;;;;;;26.27;3.13;;;11.00;99.90;;;;;;5037633;28;20025;-83
2023/01/12 04:40:14;;;;;;;26.63;3.25;;;11.10;99.90;;;;;;5037477;28;20029;-82
2023/01/12 04:43:00;;;;;;;28.05;3.33;;;11.10;99.90;;;;;;5035183;28;20028;-82
2023/01/12 04:45:35;;;;;;;29.10;3.45;;;11.10;99.90;;;;;;5019182;28;20104;-82
2023/01/12 04:48:18;;;;;;;34.58;3.40;;;11.10;99.90;;;;;;5020435;28;20037;-82
2023/01/12 04:50:44;;;;;;;24.98;3.30;;;11.10;99.90;;;;;;5039596;28;20025;-84
2023/01/12 04:53:11;;;;;;;26.73;4.32;;;11.00;99.90;;;;;;5013402;28;20530;-82
2023/01/12 04:55:38;;;;;;;25.58;2.90;;;11.10;99.90;;;;;;5036198;28;20124;-80
2023/01/12 04:58:03;;;;;;;24.83;2.97;;;11.10;99.90;;;;;;5039285;28;20051;-83
2023/01/12 05:00:29;;;;;;;26.75;3.13;;;11.10;99.90;;;;;;5020205;28;20545;-80
2023/01/12 05:02:58;;;;;;;27.75;2.95;;;11.10;99.90;;;;;;5039499;28;20032;-81
2023/01/12 05:05:24;;;;;;;25.65;3.17;;;11.10;99.90;;;;;;5028086;28;20139;-80
2023/01/12 05:10:34;;;;;;;26.63;3.47;;;11.10;99.90;;;;;;5037503;28;20078;-82
2023/01/12 05:13:00;;;;;;;25.45;2.85;;;11.10;99.90;;;;;;5037277;28;20040;-82
2023/01/12 05:15:25;;;;;;;32.08;3.17;;;11.10;99.90;;;;;;5017917;28;20454;-82
2023/01/12 05:17:53;;;;;;;20.83;3.47;;;11.10;99.90;;;;;;5036472;28;20282;-84
2023/01/12 05:20:21;;;;;;;27.35;2.92;;;11.10;99.90;;;;;;5020371;28;20548;-83
2023/01/12 05:22:47;;;;;;;29.00;3.63;;;11.10;99.90;;;;;;5039491;28;20033;-82
2023/01/12 05:25:14;;;;;;;28.02;4.07;;;11.10;99.90;;;;;;5034654;28;20363;-83
2023/01/12 05:27:39;;;;;;;33.33;3.55;;;11.10;99.90;;;;;;5021672;28;20112;-85
2023/01/12 05:30:06;;;;;;;26.67;3.17;;;11.10;99.90;;;;;;5037938;28;20128;-87
2023/01/12 05:32:37;;;;;;;30.50;3.75;;;11.10;99.90;;;;;;5019138;28;20087;-85
2023/01/12 05:35:06;;;;;;;26.08;3.83;;;11.10;99.90;;;;;;5018668;28;20447;-86
2023/01/12 05:37:32;;;;;;;27.15;3.35;;;11.10;99.90;;;;;;5019554;28;20033;-84
2023/01/12 05:39:58;;;;;;;28.20;3.72;;;11.10;99.90;;;;;;5003272;28;20029;-83
2023/01/12 05:45:09;;;;;;;39.50;3.70;;;11.10;99.90;;;;;;5038159;28;20063;-85
2023/01/12 05:47:35;;;;;;;30.88;4.68;;;11.20;99.90;;;;;;5020149;28;20116;-84
2023/01/12 05:50:01;;;;;;;27.90;3.78;;;11.20;99.90;;;;;;5032829;28;20467;-86
2023/01/12 05:52:26;;;;;;;39.28;4.68;;;11.20;99.90;;;;;;5020693;28;20319;-82
2023/01/12 05:54:52;;;;;;;30.45;3.67;;;11.20;99.90;;;;;;5020252;28;20105;-87
2023/01/12 05:57:17;;;;;;;32.35;3.90;;;11.20;99.90;;;;;;5040153;28;20033;-84
2023/01/12 05:59:43;;;;;;;33.10;4.45;;;11.20;99.90;;;;;;5020238;28;20056;-84
2023/01/12 06:02:12;;;;;;;32.45;3.35;;;11.20;99.90;;;;;;5017809;28;20030;-82
2023/01/12 06:04:38;;;;;;;28.05;3.80;;;11.20;99.90;;;;;;5020281;28;20151;-83
2023/01/12 06:07:03;;;;;;;34.80;3.67;;;11.20;99.90;;;;;;5013776;28;20539;-84
2023/01/12 06:09:29;;;;;;;37.30;4.25;;;11.20;99.90;;;;;;5017451;28;20096;-83
2023/01/12 06:14:39;;;;;;;30.60;4.13;;;11.30;99.90;;;;;;5033013;28;20112;-82
2023/01/12 06:17:04;;;;;;;35.85;3.80;;;11.30;99.90;;;;;;5016859;28;20472;-83
2023/01/12 06:19:30;;;;;;;30.35;3.08;;;11.30;99.90;;;;;;5017558;28;20143;-82
2023/01/12 06:21:58;;;;;;;31.25;4.45;;;11.20;99.90;;;;;;5002354;28;20464;-85
2023/01/12 06:24:24;;;;;;;32.13;5.13;;;11.20;99.90;;;;;;5033143;28;20085;-84
2023/01/12 06:26:50;;;;;;;32.72;3.90;;;11.20;99.90;;;;;;5013462;28;20033;-85
2023/01/12 06:29:15;;;;;;;41.03;4.65;;;11.20;99.90;;;;;;5018685;28;20040;-83
2023/01/12 06:31:42;;;;;;;35.95;3.63;;;11.20;99.90;;;;;;5036993;28;20657;-84
2023/01/12 06:34:08;;;;;;;27.63;3.47;;;11.10;99.90;;;;;;5033546;28;20033;-83
2023/01/12 06:36:34;;;;;;;30.70;3.67;;;11.10;99.90;;;;;;5017577;28;20091;-84
2023/01/12 06:39:01;;;;;;;27.73;4.10;;;11.10;99.90;;;;;;5013795;28;20033;-86
2023/01/12 06:44:10;;;;;;;42.47;5.00;;;11.10;99.90;;;;;;5033547;28;20037;-84
2023/01/12 06:46:36;;;;;;;39.00;5.25;;;11.10;99.90;;;;;;5036688;28;20503;-86
2023/01/12 06:49:01;;;;;;;40.53;5.20;;;11.10;99.90;;;;;;5036860;28;20459;-84
2023/01/12 06:51:27;;;;;;;30.45;4.15;;;11.20;99.90;;;;;;5016531;28;20592;-86
2023/01/12 06:53:53;;;;;;;28.67;3.88;;;11.20;99.90;;;;;;5017037;28;20041;-83
2023/01/12 06:56:19;;;;;;;30.77;4.20;;;11.20;99.90;;;;;;5019884;28;20056;-81
2023/01/12 06:58:45;;;;;;;23.88;3.75;;;11.20;99.90;;;;;;5034123;28;20037;-83
2023/01/12 07:01:12;;;;;;;30.52;3.90;;;11.10;99.90;;;;;;5034097;28;20098;-84
2023/01/12 07:03:38;;;;;;;16.10;2.97;;;11.10;99.90;;;;;;5032736;28;20139;-83
2023/01/12 07:06:04;;;;;;;30.20;4.10;;;11.10;99.90;;;;;;5024074;28;20313;-83
2023/01/12 07:08:31;;;;;;;25.73;3.55;;;11.10;99.90;;;;;;5012097;28;20146;-82
2023/01/12 07:11:03;;;;;;;29.42;4.85;;;11.10;99.90;;;;;;5024059;28;20373;-86
2023/01/12 07:13:31;;;;;;;35.92;4.70;;;11.00;99.90;;;;;;5015967;28;20236;-83
2023/01/12 07:15:58;;;;;;;29.05;4.10;;;11.10;99.90;;;;;;5015678;28;20037;-81
2023/01/12 07:18:25;;;;;;;25.77;2.90;;;11.00;99.90;;;;;;5021691;28;20029;-82
2023/01/12 07:20:51;;;;;;;35.05;4.18;;;11.00;99.90;;;;;;5006880;28;20067;-83
2023/01/12 07:23:16;;;;;;;32.53;3.90;;;11.10;99.90;;;;;;5031511;28;20216;-84
2023/01/12 07:25:42;;;;;;;31.70;5.03;;;11.00;99.90;;;;;;5031249;28;20076;-81
2023/01/12 07:28:08;;;;;;;36.97;4.22;;;11.00;99.90;;;;;;5027791;28;20029;-81
2023/01/12 07:30:33;;;;;;;27.58;3.25;;;11.00;99.90;;;;;;5038248;28;20040;-80
2023/01/12 07:33:11;;;;;;;34.30;4.20;;;11.00;99.90;;;;;;5025340;28;20123;-83
2023/01/12 07:35:36;;;;;;;27.67;3.88;;;11.00;99.90;;;;;;5017729;28;20036;-81
2023/01/12 07:38:02;;;;;;;33.42;4.03;;;11.00;99.90;;;;;;5031969;28;20022;-81
2023/01/12 07:40:28;;;;;;;33.13;4.70;;;11.00;99.90;;;;;;5011132;28;20021;-82
2023/01/12 07:43:16;;;;;;;34.22;4.13;;;10.90;99.90;;;;;;5027827;28;20108;-81
2023/01/12 07:45:41;;;;;;;39.50;4.10;;;10.90;99.90;;;;;;5015921;28;20146;-82
2023/01/12 07:48:07;;;;;;;38.65;4.82;;;10.90;99.90;;;;;;5020339;28;20401;-82
2023/01/12 07:50:34;;;;;;;32.03;4.50;;;10.90;99.90;;;;;;5021531;28;20156;-84
2023/01/12 07:53:01;;;;;;;37.42;5.10;;;10.90;99.90;;;;;;5034290;28;20037;-85
2023/01/12 07:55:27;;;;;;;33.92;4.13;;;10.90;99.90;;;;;;5016012;28;20029;-81
2023/01/12 07:57:54;;;;;;;34.75;4.47;;;10.90;99.90;;;;;;5030740;28;20082;-83
2023/01/12 08:00:22;;;;;;;33.05;4.18;;;10.90;99.90;;;;;;5033255;28;20029;-84
2023/01/12 08:02:49;;;;;;;38.05;4.22;;;10.90;99.90;;;;;;3981978;28;10000368;-83
2023/01/12 08:05:15;;;;;;;26.35;3.10;;;10.90;99.90;;;;;;5025443;28;20404;-81
2023/01/12 08:07:40;;;;;;;25.00;3.15;;;10.90;99.90;;;;;;5011238;28;20033;-84
2023/01/12 08:10:06;;;;;;;38.75;3.75;;;10.90;99.90;;;;;;5028720;28;20025;-83
2023/01/12 08:12:33;;;;;;;43.42;4.93;;;10.90;99.90;;;;;;5009186;28;20126;-80
2023/01/12 08:14:59;;;;;;;31.08;3.80;;;10.90;99.90;;;;;;5004152;28;20025;-82
2023/01/12 08:17:26;;;;;;;36.35;3.88;;;10.90;99.90;;;;;;5020584;28;20469;-81
2023/01/12 08:20:02;;;;;;;23.88;3.95;;;10.90;99.90;;;;;;5022964;28;20068;-83
2023/01/12 08:22:33;;;;;;;33.63;3.63;;;11.00;99.90;;;;;;5012859;28;20026;-86
2023/01/12 08:25:02;;;;;;;;;;;10.90;99.90;;;;;;5023601;28;20104;-81
2023/01/12 08:27:31;;;;;;;31.27;3.80;;;11.00;99.90;;;;;;5008512;28;19913;-86
2023/01/12 08:29:58;;;;;;;31.58;4.00;;;10.90;99.90;;;;;;5003710;28;20056;-84
2023/01/12 08:32:26;;;;;;;34.95;4.70;;;11.00;99.90;;;;;;5003270;28;20519;-82
2023/01/12 08:34:53;;;;;;;31.45;3.38;;;11.00;99.90;;;;;;5027836;28;20065;-82
2023/01/12 08:37:22;;;;;;;25.60;3.38;;;11.00;99.90;;;;;;5022842;28;20199;-86
2023/01/12 08:39:49;;;;;;;23.58;2.92;;;11.00;99.90;;;;;;5024884;28;20047;-83
2023/01/12 08:42:15;;;;;;;24.45;3.13;;;11.10;99.90;;;;;;5037638;28;20031;-84
2023/01/12 08:44:40;;;;;;;25.85;3.03;;;11.10;99.90;;;;;;5026703;28;20791;-83
2023/01/12 08:47:16;;;;;;;34.08;3.78;;;11.10;99.90;;;;;;5016366;28;20114;-82
2023/01/12 08:49:42;;;;;;;32.55;3.30;;;11.10;99.90;;;;;;5017081;28;20059;-84
2023/01/12 08:52:08;;;;;;;27.65;3.63;;;11.10;99.90;;;;;;5035872;28;20087;-83
2023/01/12 08:54:35;;;;;;;27.10;3.42;;;11.10;99.90;;;;;;5031885;28;20032;-83
2023/01/12 08:57:00;;;;;;;32.78;3.95;;;11.10;99.90;;;;;;5023704;28;20017;-83
2023/01/12 08:59:26;;;;;;;32.65;3.53;;;11.10;99.90;;;;;;5023875;28;20076;-84
2023/01/12 09:01:51;;;;;;;39.80;4.90;;;11.10;99.90;;;;;;5031108;28;20033;-82
2023/01/12 09:04:17;;;;;;;31.88;4.38;;;11.10;99.90;;;;;;5024628;28;20099;-84
2023/01/12 09:06:44;;;;;;;35.22;3.63;;;11.10;99.90;;;;;;5027335;28;20076;-84
2023/01/12 09:09:15;;;;;;;39.70;3.55;;;11.10;99.90;;;;;;5043167;28;20025;-85
2023/01/12 09:11:42;;;;;;;27.42;4.18;;;11.10;99.90;;;;;;5044032;28;20167;-84
2023/01/12 09:14:09;;;;;;;21.27;3.00;;;11.10;99.90;;;;;;5024896;28;20212;-83
2023/01/12 09:16:35;;;;;;;19.33;2.20;;;11.10;99.90;;;;;;5025520;28;20024;-83
2023/01/12 09:19:01;;;;;;;18.45;2.90;;;11.10;99.90;;;;;;5038801;28;20507;-84
2023/01/12 09:21:29;;;;;;;24.17;3.22;;;11.10;99.90;;;;;;5019293;28;20120;-83
2023/01/12 09:23:55;;;;;;;22.58;2.53;;;11.10;99.90;;;;;;5013845;28;20546;-86
2023/01/12 09:26:30;;;;;;;23.00;2.35;;;11.10;99.90;;;;;;5028694;28;20037;-84
2023/01/12 09:28:59;;;;;;;23.75;3.00;;;11.10;99.90;;;;;;5030279;28;20389;-84
2023/01/12 09:31:26;;;;;;;21.00;2.67;;;11.20;99.90;;;;;;5030921;28;20048;-84
2023/01/12 09:33:53;;;;;;;24.48;3.13;;;11.20;99.90;;;;;;5015553;28;20037;-85
2023/01/12 09:36:22;;;;;;;31.58;3.28;;;11.20;99.90;;;;;;5016478;28;20548;-84
2023/01/12 09:38:48;;;;;;;37.75;3.42;;;11.20;99.90;;;;;;5015386;28;20088;-86
2023/01/12 09:46:57;;;;;;;20.35;3.10;;;11.20;99.90;;;;;;5024684;28;20120;-85
2023/01/12 09:47:32;;;;;;;24.77;2.90;;;11.10;99.90;;;;;;5045199;28;20605;-86
2023/01/12 09:50:03;;;;;;;28.05;3.20;;;11.10;99.90;;;;;;5025096;28;20127;-85
2023/01/12 09:52:31;;;;;;;;;;;11.10;99.90;;;;;;5044867;28;20067;-86
2023/01/12 09:54:57;;;;;;;19.13;2.88;;;11.10;99.90;;;;;;5024064;28;19909;-86
2023/01/12 09:57:54;;;;;;;23.13;3.47;;;11.20;99.90;;;;;;5022186;28;20459;-84
2023/01/12 10:00:20;;;;;;;24.20;2.63;;;11.20;99.90;;;;;;5016350;28;20025;-87
2023/01/12 10:02:52;;;;;;;26.55;2.47;;;11.20;99.90;;;;;;5031042;28;20033;-85
2023/01/12 10:05:39;;;;;;;22.40;2.38;;;11.20;99.90;;;;;;5031292;28;20033;-85
2023/01/12 10:08:13;;;;;;;21.20;2.28;;;11.20;99.90;;;;;;5025948;28;20067;-84
2023/01/12 10:10:46;;;;;;;16.45;2.03;;;11.20;99.90;;;;;;5044106;28;20029;-85
2023/01/12 10:13:13;;;;;;;15.75;2.72;;;11.20;99.90;;;;;;5025910;28;20095;-85
2023/01/12 10:15:44;;;;;;;16.58;2.00;;;11.20;99.90;;;;;;5043893;28;20102;-86
2023/01/12 10:18:22;;;;;;;14.50;2.20;;;11.30;99.90;;;;;;5022448;28;20485;-85
2023/01/12 10:20:47;;;;;;;11.50;1.48;;;11.30;99.90;;;;;;4693227;28;10001513;-85
2023/01/12 10:23:15;;;;;;;13.30;2.20;;;11.40;99.90;;;;;;5043009;28;20064;-86
2023/01/12 10:25:47;;;;;;;14.55;1.95;;;11.40;99.90;;;;;;5023085;28;20030;-85
2023/01/12 10:28:15;;;;;;;10.93;1.73;;;11.40;99.90;;;;;;5039144;28;20041;-86
2023/01/12 10:30:41;;;;;;;17.15;2.88;;;11.40;99.90;;;;;;5035310;28;20083;-86
2023/01/12 10:33:12;;;;;;;17.60;2.47;;;11.40;99.90;;;;;;5030014;28;20483;-85
2023/01/12 10:36:00;;;;;;;9.27;1.60;;;11.40;99.90;;;;;;5045359;28;20494;-84
2023/01/12 10:38:38;;;;;;;13.93;2.28;;;11.40;99.90;;;;;;5025074;28;20754;-87
2023/01/12 10:41:09;;;;;;;15.85;1.98;;;11.50;99.90;;;;;;5026712;28;20029;-87
2023/01/12 10:43:35;;;;;;;11.40;1.90;;;11.40;99.90;;;;;;5022287;28;20032;-84
2023/01/12 10:46:14;;;;;;;11.57;1.70;;;11.50;99.90;;;;;;5016461;28;20021;-86
2023/01/12 10:48:43;;;;;;;11.15;1.63;;;11.50;99.90;;;;;;5046114;28;20132;-83
2023/01/12 10:51:21;;;;;;;16.42;1.75;;;11.40;99.90;;;;;;5039758;28;21060;-85
2023/01/12 10:54:01;;;;;;;22.85;2.53;;;11.50;99.90;;;;;;5020142;28;20045;-86
2023/01/12 10:56:35;;;;;;;21.25;3.05;;;11.50;99.90;;;;;;5019198;28;20123;-86
2023/01/12 10:59:18;;;;;;;13.30;2.00;;;11.50;99.90;;;;;;5017478;28;20120;-85
2023/01/12 11:02:11;;;;;;;11.98;2.00;;;11.50;99.90;;;;;;5034468;28;20188;-84
2023/01/12 11:04:47;;;;;;;12.13;2.05;;;11.50;99.90;;;;;;5037915;28;20029;-84
2023/01/12 11:07:18;;;;;;;18.63;2.65;;;11.50;99.90;;;;;;5044026;28;20055;-86
2023/01/12 11:09:44;;;;;;;14.43;2.10;;;11.50;99.90;;;;;;5040624;28;20313;-84
2023/01/12 11:12:36;;;;;;;21.27;2.28;;;11.50;99.90;;;;;;5023279;28;20747;-83
2023/01/12 11:15:03;;;;;;;;;;;11.50;99.90;;;;;;5037373;28;21476;-82
2023/01/12 11:17:35;;;;;;;12.50;2.03;;;11.50;99.90;;;;;;5036850;28;20291;-85
2023/01/12 11:20:13;;;;;;;15.75;2.00;;;11.50;99.90;;;;;;5021327;28;20025;-84
2023/01/12 11:22:41;;;;;;;20.13;2.67;;;11.50;99.90;;;;;;5021696;28;20144;-82
2023/01/12 11:25:16;;;;;;;16.83;2.08;;;11.50;99.90;;;;;;5022039;28;20124;-82
2023/01/12 11:28:07;;;;;;;15.63;2.03;;;11.40;99.90;;;;;;5043805;28;20418;-84
2023/01/12 11:30:35;;;;;;;17.90;2.45;;;11.50;99.90;;;;;;5012602;28;20120;-84
2023/01/12 11:33:09;;;;;;;13.57;2.10;;;11.50;99.90;;;;;;5043767;28;20052;-85
2023/01/12 11:35:44;;;;;;;13.63;1.95;;;11.50;99.90;;;;;;5035847;28;20029;-87
2023/01/12 11:38:22;;;;;;;15.90;1.88;;;11.50;99.90;;;;;;5026355;28;20066;-86
2023/01/12 11:40:48;;;;;;;14.45;2.17;;;11.50;99.90;;;;;;5036106;28;20472;-86
2023/01/12 11:43:54;;;;;;;15.88;2.55;;;11.60;99.90;;;;;;5029334;28;20013;-86
2023/01/12 11:46:25;;;;;;;15.13;2.28;;;11.70;99.90;;;;;;4981717;28;20037;-84
2023/01/12 11:48:58;;;;;;;14.02;2.13;;;11.70;99.90;;;;;;5023634;28;20032;-87
2023/01/12 11:51:24;;;;;;;16.02;1.95;;;11.80;99.90;;;;;;5027831;28;20033;-87
2023/01/12 11:53:50;;;;;;;8.70;1.52;;;11.80;99.90;;;;;;5045317;28;20545;-86
2023/01/12 11:56:42;;;;;;;17.08;1.60;;;11.80;99.90;;;;;;5058387;28;20484;-84
2023/01/12 11:59:17;;;;;;;10.18;1.83;;;11.90;99.90;;;;;;5028793;28;20473;-86
2023/01/12 12:02:09;;;;;;;8.05;1.63;;;11.90;99.90;;;;;;5024977;28;20040;-85
2023/01/12 12:04:46;;;;;;;;;;;11.80;99.90;;;;;;4990222;28;20048;-85
2023/01/12 12:07:31;;;;;;;9.80;1.50;;;11.80;99.90;;;;;;5031867;28;19921;-84
2023/01/12 12:10:08;;;;;;;6.47;1.02;;;11.80;99.90;;;;;;5021366;28;20629;-80
2023/01/12 12:12:49;;;;;;;7.88;1.00;;;11.80;99.90;;;;;;5034112;28;20029;-86
2023/01/12 12:15:21;;;;;;;9.88;1.25;;;11.80;99.90;;;;;;5036813;28;20621;-84
2023/01/12 12:18:03;;;;;;;7.82;2.15;;;11.80;99.90;;;;;;5034243;28;20081;-87
2023/01/12 12:20:54;;;;;;;15.88;2.10;;;11.70;99.90;;;;;;5020520;28;20040;-84
2023/01/12 12:23:43;;;;;;;14.15;2.63;;;11.70;99.90;;;;;;5027752;28;20602;-86
2023/01/12 12:26:33;;;;;;;20.67;2.53;;;11.70;99.90;;;;;;5023612;28;20040;-83
2023/01/12 12:29:26;;;;;;;20.00;1.95;;;11.60;99.90;;;;;;5041185;28;20052;-84
2023/01/12 12:31:59;;;;;;;22.00;3.05;;;11.60;99.90;;;;;;5038240;28;20052;-85
2023/01/12 12:35:03;;;;;;;24.08;2.70;;;11.70;99.90;;;;;;5020012;28;20044;-86
2023/01/12 12:38:02;;;;;;;26.60;3.05;;;11.80;99.90;;;;;;5025851;28;20033;-83
2023/01/12 12:47:26;;;;;;;22.35;3.00;;;11.70;99.90;;;;;;5041485;28;20043;-84
2023/01/12 12:49:55;;;;;;;26.58;3.42;;;11.70;99.90;;;;;;5036949;28;20136;-86
2023/01/12 12:52:22;;;;;;;28.73;4.90;;;11.70;99.90;;;;;;5029463;28;20025;-84
2023/01/12 12:54:50;;;;;;;31.00;4.47;;;11.70;99.90;;;;;;5036600;28;20037;-83
2023/01/12 12:57:17;;;;;;;29.58;3.80;;;11.70;99.90;;;;;;5022354;28;20031;-83
2023/01/12 12:59:58;;;;;;;29.00;3.78;;;11.70;99.90;;;;;;5033098;28;20099;-83
2023/01/12 13:02:37;;;;;;;33.38;4.05;;;11.70;99.90;;;;;;5018120;28;20128;-83
2023/01/12 13:05:05;;;;;;;34.03;5.70;;;11.60;99.90;;;;;;5024044;28;20065;-83
2023/01/12 13:07:35;;;;;;;24.23;4.20;;;11.60;99.90;;;;;;5021257;28;20461;-84
2023/01/12 13:10:22;;;;;;;30.55;3.75;;;11.60;99.90;;;;;;5021941;28;20037;-86
2023/01/12 13:12:56;;;;;;;28.00;3.97;;;11.50;99.90;;;;;;5021102;28;20400;-82
2023/01/12 13:15:26;;;;;;;28.50;3.17;;;11.40;99.90;;;;;;5035706;28;20041;-83
2023/01/12 13:17:53;;;;;;;26.52;3.70;;;11.40;99.90;;;;;;5019178;28;20052;-81
2023/01/12 13:20:18;;;;;;;35.75;3.92;;;11.40;99.90;;;;;;5022416;28;20146;-84
2023/01/12 13:22:47;;;;;;;32.15;4.55;;;11.50;99.90;;;;;;5015678;28;20052;-81
2023/01/12 13:25:18;;;;;;;33.22;3.70;;;11.50;99.90;;;;;;5016199;28;20025;-83
2023/01/12 13:28:01;;;;;;;22.52;3.30;;;11.50;99.90;;;;;;5017827;28;20519;-80
2023/01/12 13:30:30;;;;;;;38.47;4.32;;;11.50;99.90;;;;;;5014777;28;20067;-82